createdAt,value
2019-05-19T00:01:08.699Z,8.63
2019-05-19T00:03:40.489Z,7.37
2019-05-19T00:06:14.175Z,5.95
2019-05-19T00:08:45.893Z,8.18
2019-05-19T00:11:23.189Z,6.00
2019-05-19T00:13:56.453Z,7.22
2019-05-19T00:16:29.074Z,16.73
2019-05-19T00:19:02.314Z,6.40
2019-05-19T00:21:34.504Z,8.50
2019-05-19T00:24:06.242Z,5.58
2019-05-19T00:26:40.557Z,9.10
2019-05-19T00:29:13.266Z,8.58
2019-05-19T00:31:45.185Z,11.93
2019-05-19T00:34:16.910Z,5.55
2019-05-19T00:36:48.694Z,6.20
2019-05-19T00:39:20.585Z,6.03
2019-05-19T00:41:52.334Z,7.53
2019-05-19T00:44:25.687Z,10.80
2019-05-19T00:46:57.511Z,6.20
2019-05-19T00:49:40.614Z,13.88
2019-05-19T00:52:03.255Z,16.10
2019-05-19T00:54:35.526Z,12.50
2019-05-19T00:57:07.488Z,10.45
2019-05-19T00:59:39.246Z,14.75
2019-05-19T01:02:11.000Z,8.18
2019-05-19T01:04:42.717Z,8.53
2019-05-19T01:07:14.476Z,7.92
2019-05-19T01:09:46.228Z,7.47
2019-05-19T01:12:20.625Z,10.38
2019-05-19T01:14:54.040Z,10.32
2019-05-19T01:17:25.875Z,13.28
2019-05-19T01:19:57.584Z,10.10
2019-05-19T01:22:29.670Z,13.00
2019-05-19T01:25:02.145Z,11.88
2019-05-19T01:27:33.852Z,9.10
2019-05-19T01:30:06.136Z,9.45
2019-05-19T01:32:37.864Z,6.40
2019-05-19T01:35:09.574Z,14.13
2019-05-19T01:37:43.064Z,9.68
2019-05-19T01:40:16.315Z,7.37
2019-05-19T01:42:48.007Z,9.70
2019-05-19T01:45:19.751Z,8.55
2019-05-19T01:47:51.448Z,9.48
2019-05-19T01:50:24.735Z,9.08
2019-05-19T01:52:56.452Z,8.90
2019-05-19T01:55:28.435Z,14.98
2019-05-19T01:58:00.202Z,10.72
2019-05-19T02:00:32.880Z,18.90
2019-05-19T02:03:05.642Z,17.35
2019-05-19T02:05:37.390Z,14.58
2019-05-19T02:08:09.249Z,15.93
2019-05-19T02:10:41.027Z,14.28
2019-05-19T02:13:13.741Z,13.90
2019-05-19T02:15:47.391Z,13.13
2019-05-19T02:18:19.086Z,9.08
2019-05-19T02:20:50.881Z,9.70
2019-05-19T02:23:23.047Z,10.10
2019-05-19T02:25:56.448Z,7.05
2019-05-19T02:28:28.124Z,7.80
2019-05-19T02:30:59.907Z,6.62
2019-05-19T02:33:35.672Z,8.73
2019-05-19T02:36:05.988Z,9.28
2019-05-19T02:38:38.760Z,9.78
2019-05-19T02:41:10.562Z,12.43
2019-05-19T02:43:43.426Z,15.80
2019-05-19T02:46:15.152Z,13.88
2019-05-19T02:48:46.885Z,12.58
2019-05-19T02:51:18.657Z,10.05
2019-05-19T02:53:50.604Z,5.58
2019-05-19T02:56:24.203Z,10.03
2019-05-19T02:58:55.912Z,15.43
2019-05-19T03:01:28.094Z,12.82
2019-05-19T03:03:59.824Z,9.08
2019-05-19T03:06:32.583Z,9.00
2019-05-19T03:09:05.930Z,14.93
2019-05-19T03:11:37.687Z,13.93
2019-05-19T03:14:11.226Z,13.18
2019-05-19T03:16:44.460Z,13.93
2019-05-19T03:19:16.580Z,14.00
2019-05-19T03:21:48.299Z,12.35
2019-05-19T03:24:20.278Z,12.25
2019-05-19T03:26:51.990Z,20.35
2019-05-19T03:29:28.380Z,16.55
2019-05-19T03:32:12.425Z,17.00
2019-05-19T03:34:43.582Z,16.73
2019-05-19T03:37:15.652Z,10.38
2019-05-19T03:39:49.334Z,10.00
2019-05-19T03:42:21.071Z,9.35
2019-05-19T03:44:52.872Z,9.00
2019-05-19T03:47:24.622Z,8.58
2019-05-19T03:49:56.331Z,9.73
2019-05-19T03:52:28.072Z,13.98
2019-05-19T03:55:00.214Z,8.53
2019-05-19T03:57:32.875Z,10.08
2019-05-19T04:00:05.963Z,8.03
2019-05-19T04:02:38.093Z,6.87
2019-05-19T04:05:09.806Z,13.68
2019-05-19T04:07:41.544Z,9.73
2019-05-19T04:10:13.247Z,11.70
2019-05-19T04:12:46.567Z,9.83
2019-05-19T04:15:18.371Z,11.83
2019-05-19T04:17:50.090Z,8.95
2019-05-19T04:20:21.788Z,11.18
2019-05-19T04:22:53.874Z,12.58
2019-05-19T04:25:26.896Z,11.68
2019-05-19T04:27:58.621Z,12.95
2019-05-19T04:30:30.317Z,14.18
2019-05-19T04:33:02.029Z,15.95
2019-05-19T04:35:33.780Z,16.15
2019-05-19T04:38:05.624Z,16.20
2019-05-19T04:40:37.346Z,14.50
2019-05-19T04:43:09.057Z,14.28
2019-05-19T04:45:42.642Z,17.25
2019-05-19T04:48:14.472Z,11.12
2019-05-19T04:50:46.221Z,12.73
2019-05-19T04:53:17.937Z,11.22
2019-05-19T04:55:49.739Z,12.70
2019-05-19T04:58:21.511Z,11.22
2019-05-19T05:00:53.225Z,9.98
2019-05-19T05:03:24.929Z,11.33
2019-05-19T05:05:56.721Z,13.93
2019-05-19T05:08:30.582Z,13.38
2019-05-19T05:11:02.014Z,9.55
2019-05-19T05:13:33.687Z,15.38
2019-05-19T05:16:05.417Z,9.30
2019-05-19T05:18:37.162Z,12.33
2019-05-19T05:21:09.099Z,11.00
2019-05-19T05:23:40.832Z,11.18
2019-05-19T05:26:13.000Z,10.45
2019-05-19T05:28:44.717Z,15.58
2019-05-19T05:31:16.845Z,14.10
2019-05-19T05:33:48.806Z,12.93
2019-05-19T05:36:20.608Z,7.35
2019-05-19T05:38:55.259Z,10.13
2019-05-19T05:41:27.012Z,14.28
2019-05-19T05:43:59.101Z,8.58
2019-05-19T05:46:30.915Z,10.80
2019-05-19T05:49:03.272Z,10.40
2019-05-19T05:51:38.247Z,8.95
2019-05-19T05:54:10.022Z,10.88
2019-05-19T05:56:41.831Z,10.98
2019-05-19T05:59:13.538Z,11.50
2019-05-19T06:01:45.278Z,10.10
2019-05-19T06:04:17.010Z,14.85
2019-05-19T06:06:48.796Z,10.60
2019-05-19T06:09:20.606Z,9.15
2019-05-19T06:11:52.362Z,11.10
2019-05-19T06:14:24.127Z,14.30
2019-05-19T06:16:55.863Z,8.75
2019-05-19T06:19:27.792Z,10.38
2019-05-19T06:21:59.504Z,10.90
2019-05-19T06:24:31.261Z,9.00
2019-05-19T06:27:07.376Z,9.28
2019-05-19T06:29:42.533Z,14.03
2019-05-19T06:32:31.515Z,17.15
2019-05-19T06:35:03.313Z,20.43
2019-05-19T06:37:35.252Z,21.42
2019-05-19T06:40:07.025Z,22.50
2019-05-19T06:42:39.269Z,21.52
2019-05-19T06:45:10.996Z,22.58
2019-05-19T06:47:45.453Z,20.20
2019-05-19T06:50:17.302Z,21.07
2019-05-19T06:52:49.020Z,20.85
2019-05-19T06:55:21.538Z,21.75
2019-05-19T06:57:53.283Z,18.52
2019-05-19T07:00:25.051Z,13.15
2019-05-19T07:02:58.463Z,13.65
2019-05-19T07:05:30.270Z,12.07
2019-05-19T07:08:01.995Z,17.48
2019-05-19T07:10:33.760Z,17.65
2019-05-19T07:13:06.493Z,11.85
2019-05-19T07:15:38.365Z,11.43
2019-05-19T07:18:10.083Z,12.50
2019-05-19T07:20:41.821Z,11.90
2019-05-19T07:23:27.319Z,13.45
2019-05-19T07:25:49.302Z,11.95
2019-05-19T07:28:21.172Z,10.98
2019-05-19T07:30:52.937Z,13.85
2019-05-19T07:33:24.661Z,14.18
2019-05-19T07:35:57.466Z,14.63
2019-05-19T07:38:29.474Z,15.58
2019-05-19T07:41:03.261Z,11.73
2019-05-19T07:43:35.057Z,15.08
2019-05-19T07:46:06.854Z,16.12
2019-05-19T07:48:39.022Z,15.90
2019-05-19T07:51:12.298Z,14.43
2019-05-19T07:53:44.168Z,12.47
2019-05-19T07:56:19.295Z,12.30
2019-05-19T07:58:54.479Z,13.08
2019-05-19T08:01:26.271Z,11.12
2019-05-19T08:03:57.991Z,9.55
2019-05-19T08:06:29.714Z,12.07
2019-05-19T08:09:02.007Z,13.90
2019-05-19T08:11:35.010Z,11.48
2019-05-19T08:14:07.683Z,9.05
2019-05-19T08:16:39.595Z,10.32
2019-05-19T08:19:15.089Z,11.57
2019-05-19T08:21:47.275Z,9.58
2019-05-19T08:24:20.912Z,7.70
2019-05-19T08:26:52.982Z,8.55
2019-05-19T08:29:25.828Z,5.30
2019-05-19T08:32:08.168Z,7.25
2019-05-19T08:34:50.912Z,7.53
2019-05-19T08:37:25.666Z,9.28
2019-05-19T08:40:04.526Z,11.70
2019-05-19T08:42:38.160Z,9.68
2019-05-19T08:45:09.968Z,7.87
2019-05-19T08:47:42.070Z,6.08
2019-05-19T08:50:13.953Z,5.62
2019-05-19T08:52:46.122Z,6.53
2019-05-19T08:55:17.821Z,7.03
2019-05-19T08:57:49.648Z,7.30
2019-05-19T09:00:21.376Z,5.97
2019-05-19T09:02:53.129Z,4.05
2019-05-19T09:05:24.858Z,6.00
2019-05-19T09:07:56.589Z,8.75
2019-05-19T09:10:28.387Z,6.80
2019-05-19T09:13:00.125Z,7.87
2019-05-19T09:15:34.300Z,4.58
2019-05-19T09:18:07.606Z,5.65
2019-05-19T09:20:39.675Z,5.85
2019-05-19T09:23:11.455Z,4.30
2019-05-19T09:25:43.196Z,6.62
2019-05-19T09:28:15.050Z,7.80
2019-05-19T09:30:46.884Z,4.85
2019-05-19T09:33:18.852Z,3.92
2019-05-19T09:35:50.944Z,5.47
2019-05-19T09:38:22.724Z,6.87
2019-05-19T09:54:44.040Z,4.85
2019-05-19T09:57:07.735Z,4.87
2019-05-19T09:59:39.576Z,6.53
2019-05-19T10:02:11.298Z,11.80
2019-05-19T10:04:43.505Z,5.28
2019-05-19T10:07:15.357Z,6.70
2019-05-19T10:10:04.446Z,8.30
2019-05-19T10:12:36.159Z,6.17
2019-05-19T10:15:08.115Z,3.47
2019-05-19T10:17:39.894Z,4.95
2019-05-19T10:22:56.883Z,7.40
2019-05-19T10:25:30.224Z,8.10
2019-05-19T10:28:02.144Z,10.55
2019-05-19T10:30:34.048Z,6.90
2019-05-19T10:33:07.549Z,5.75
2019-05-19T10:35:42.513Z,4.80
2019-05-19T10:38:17.587Z,5.72
2019-05-19T10:40:48.571Z,4.30
2019-05-19T10:43:22.392Z,6.17
2019-05-19T10:46:05.771Z,6.03
2019-05-19T10:48:36.983Z,5.25
2019-05-19T10:51:09.161Z,7.75
2019-05-19T10:53:42.004Z,6.15
2019-05-19T10:56:13.686Z,6.85
2019-05-19T10:58:45.380Z,9.20
2019-05-19T11:01:17.072Z,4.75
2019-05-19T11:03:50.408Z,5.45
2019-05-19T11:06:23.911Z,6.20
2019-05-19T11:08:56.605Z,7.40
2019-05-19T11:11:28.740Z,10.78
2019-05-19T11:14:00.849Z,6.55
2019-05-19T11:16:33.795Z,5.05
2019-05-19T11:19:06.834Z,6.92
2019-05-19T11:21:38.651Z,5.10
2019-05-19T11:24:10.383Z,7.03
2019-05-19T11:26:42.710Z,3.45
2019-05-19T11:29:14.778Z,4.40
2019-05-19T11:31:46.790Z,7.03
2019-05-19T11:34:18.902Z,7.22
2019-05-19T11:36:51.293Z,4.53
2019-05-19T11:39:23.340Z,4.20
2019-05-19T11:41:55.390Z,5.85
2019-05-19T11:44:31.393Z,4.97
2019-05-19T11:47:04.584Z,12.78
2019-05-19T11:49:36.649Z,8.78
2019-05-19T11:52:09.097Z,5.03
2019-05-19T11:54:41.217Z,7.30
2019-05-19T11:57:12.913Z,4.47
2019-05-19T11:59:44.731Z,5.28
2019-05-19T12:02:16.428Z,4.85
2019-05-19T12:04:48.152Z,5.92
2019-05-19T12:07:19.894Z,4.97
2019-05-19T12:09:53.219Z,3.65
2019-05-19T12:12:25.053Z,7.58
2019-05-19T12:14:58.453Z,4.87
2019-05-19T12:17:31.369Z,5.58
2019-05-19T12:20:03.178Z,6.60
2019-05-19T12:22:34.885Z,11.55
2019-05-19T12:25:08.055Z,3.45
2019-05-19T12:27:39.845Z,7.65
2019-05-19T12:30:17.657Z,5.50
2019-05-19T12:32:49.664Z,2.77
2019-05-19T12:35:24.796Z,7.37
2019-05-19T12:37:56.591Z,2.90
2019-05-19T12:40:28.322Z,3.80
2019-05-19T12:43:00.476Z,3.05
2019-05-19T12:45:32.940Z,2.85
2019-05-19T12:48:06.636Z,3.58
2019-05-19T12:50:38.342Z,2.12
2019-05-19T12:53:10.078Z,2.55
2019-05-19T12:55:41.847Z,3.20
2019-05-19T12:58:13.621Z,2.10
2019-05-19T13:00:46.309Z,2.55
2019-05-19T13:03:19.686Z,3.90
2019-05-19T13:05:54.254Z,4.70
2019-05-19T13:08:26.099Z,1.72
2019-05-19T13:10:57.796Z,3.72
2019-05-19T13:13:29.669Z,3.00
2019-05-19T13:16:04.701Z,3.00
2019-05-19T13:18:36.390Z,2.87
2019-05-19T13:21:08.169Z,6.30
2019-05-19T13:23:40.016Z,5.72
2019-05-19T13:26:11.827Z,10.35
2019-05-19T13:28:43.627Z,4.08
2019-05-19T13:31:15.374Z,11.43
2019-05-19T13:33:49.909Z,10.05
2019-05-19T13:36:21.656Z,7.65
2019-05-19T13:38:55.003Z,5.03
2019-05-19T13:41:26.825Z,4.53
2019-05-19T13:43:59.703Z,4.20
2019-05-19T13:46:33.636Z,2.65
2019-05-19T13:49:07.027Z,3.15
2019-05-19T13:51:38.820Z,4.58
2019-05-19T13:54:10.780Z,5.22
2019-05-19T13:56:42.790Z,5.53
2019-05-19T13:59:14.543Z,1.70
2019-05-19T14:01:46.292Z,3.22
2019-05-19T14:04:18.178Z,9.15
2019-05-19T14:06:50.958Z,3.50
2019-05-19T14:09:22.734Z,4.33
2019-05-19T14:11:54.724Z,3.05
2019-05-19T14:14:26.509Z,4.45
2019-05-19T14:16:58.271Z,5.78
2019-05-19T14:19:30.092Z,4.70
2019-05-19T14:22:03.938Z,5.08
2019-05-19T14:24:35.694Z,4.95
2019-05-19T14:27:07.464Z,4.83
2019-05-19T14:43:11.418Z,4.47
2019-05-19T14:45:44.775Z,1.57
2019-05-19T14:48:16.585Z,2.58
2019-05-19T14:50:48.590Z,9.10
2019-05-19T14:53:20.312Z,2.92
2019-05-19T14:55:52.054Z,5.12
2019-05-19T14:58:24.293Z,6.47
2019-05-19T15:00:56.351Z,2.35
2019-05-19T15:03:28.206Z,3.85
2019-05-19T15:06:00.454Z,8.63
2019-05-19T15:08:32.947Z,3.35
2019-05-19T15:11:04.690Z,2.20
2019-05-19T15:13:36.461Z,4.10
2019-05-19T15:16:08.654Z,5.25
2019-05-19T15:18:40.443Z,2.15
2019-05-19T15:21:12.225Z,2.77
2019-05-19T15:23:44.155Z,8.13
2019-05-19T15:26:17.511Z,5.25
2019-05-19T15:28:49.352Z,4.28
2019-05-19T15:31:21.089Z,3.70
2019-05-19T15:33:52.815Z,1.87
2019-05-19T15:36:26.180Z,2.42
2019-05-19T15:38:57.953Z,2.45
2019-05-19T15:41:29.733Z,4.15
2019-05-19T15:44:01.501Z,6.75
2019-05-19T15:46:33.619Z,4.22
2019-05-19T15:49:06.238Z,2.15
2019-05-19T15:51:39.763Z,5.12
2019-05-19T15:54:11.542Z,4.95
2019-05-19T15:56:43.339Z,3.42
2019-05-19T15:59:15.099Z,2.50
2019-05-19T16:01:48.324Z,2.75
2019-05-19T16:04:20.323Z,4.97
2019-05-19T16:06:52.122Z,2.72
2019-05-19T16:09:23.961Z,8.18
2019-05-19T16:11:57.319Z,3.62
2019-05-19T16:14:29.210Z,4.03
2019-05-19T16:17:01.936Z,4.83
2019-05-19T16:19:33.763Z,4.60
2019-05-19T16:22:05.756Z,3.70
2019-05-19T16:24:38.128Z,3.52
2019-05-19T16:27:12.937Z,2.92
2019-05-19T16:29:48.199Z,3.58
2019-05-19T16:32:19.888Z,1.80
2019-05-19T16:34:51.851Z,2.35
2019-05-19T16:37:23.620Z,2.98
2019-05-19T16:39:55.371Z,2.20
2019-05-19T16:42:28.054Z,6.97
2019-05-19T16:45:00.179Z,4.85
2019-05-19T16:47:35.860Z,3.17
2019-05-19T16:50:08.193Z,4.40
2019-05-19T16:52:39.935Z,4.62
2019-05-19T16:55:25.816Z,3.27
2019-05-19T16:57:57.518Z,4.22
2019-05-19T17:00:30.087Z,2.62
2019-05-19T17:03:03.437Z,6.25
2019-05-19T17:05:35.230Z,3.33
2019-05-19T17:08:11.236Z,4.65
2019-05-19T17:10:43.123Z,4.17
2019-05-19T17:13:14.943Z,2.62
2019-05-19T17:15:46.708Z,9.53
2019-05-19T17:18:18.529Z,7.45
2019-05-19T17:20:51.691Z,4.35
2019-05-19T17:23:23.648Z,5.33
2019-05-19T17:25:55.438Z,2.77
2019-05-19T17:28:27.183Z,1.30
2019-05-19T17:30:58.995Z,3.50
2019-05-19T17:33:30.999Z,4.28
2019-05-19T17:36:02.821Z,7.85
2019-05-19T17:38:34.612Z,3.17
2019-05-19T17:41:08.070Z,3.67
2019-05-19T17:43:39.969Z,6.45
2019-05-19T17:46:12.055Z,4.40
2019-05-19T17:48:43.844Z,2.95
2019-05-19T17:51:15.627Z,3.00
2019-05-19T17:53:47.403Z,36.30
2019-05-19T17:56:19.362Z,7.33
2019-05-19T17:58:52.863Z,5.17
2019-05-19T18:01:24.718Z,7.30
2019-05-19T18:03:59.835Z,4.37
2019-05-19T18:06:33.324Z,2.98
2019-05-19T18:09:06.863Z,6.97
2019-05-19T18:11:38.739Z,6.62
2019-05-19T18:14:10.838Z,5.37
2019-05-19T18:16:42.822Z,3.90
2019-05-19T18:19:14.937Z,9.70
2019-05-19T18:21:46.955Z,8.28
2019-05-19T18:24:19.802Z,2.10
2019-05-19T18:26:52.286Z,2.77
2019-05-19T18:29:31.501Z,5.75
2019-05-19T18:31:58.293Z,6.12
2019-05-19T18:34:32.150Z,4.15
2019-05-19T18:37:04.109Z,13.98
2019-05-19T18:39:38.979Z,3.87
2019-05-19T18:42:10.835Z,3.27
2019-05-19T18:44:42.781Z,5.67
2019-05-19T18:47:16.559Z,2.30
2019-05-19T18:49:48.418Z,4.72
2019-05-19T18:52:20.183Z,12.47
2019-05-19T18:54:52.102Z,4.90
2019-05-19T18:57:23.941Z,3.75
2019-05-19T18:59:55.951Z,6.33
2019-05-19T19:02:28.145Z,6.70
2019-05-19T19:04:59.938Z,5.03
2019-05-19T19:07:53.118Z,11.28
2019-05-19T19:10:25.037Z,4.85
2019-05-19T19:12:57.156Z,4.87
2019-05-19T19:15:28.944Z,3.50
2019-05-19T19:18:02.288Z,6.80
2019-05-19T19:20:34.469Z,6.25
2019-05-19T19:23:06.783Z,7.80
2019-05-19T19:25:38.747Z,11.22
2019-05-19T19:28:10.485Z,13.93
2019-05-19T19:30:42.516Z,13.75
2019-05-19T19:33:14.262Z,7.62
2019-05-19T19:35:46.034Z,12.18
2019-05-19T19:38:17.784Z,12.65
2019-05-19T19:40:54.108Z,6.17
2019-05-19T19:43:26.278Z,8.23
2019-05-19T19:45:59.638Z,7.28
2019-05-19T19:48:32.442Z,6.53
2019-05-19T19:51:06.095Z,8.20
2019-05-19T19:53:37.796Z,7.35
2019-05-19T19:56:09.529Z,4.28
2019-05-19T19:58:41.267Z,6.62
2019-05-19T20:01:12.991Z,9.40
2019-05-19T20:03:44.945Z,9.90
2019-05-19T20:06:17.374Z,8.98
2019-05-19T20:08:49.167Z,3.15
2019-05-19T20:11:20.905Z,7.42
2019-05-19T20:13:52.801Z,6.53
2019-05-19T20:16:25.019Z,5.03
2019-05-19T20:18:56.746Z,10.43
2019-05-19T20:21:28.545Z,7.20
2019-05-19T20:24:02.999Z,10.08
2019-05-19T20:26:36.366Z,6.25
2019-05-19T20:29:08.367Z,7.90
2019-05-19T20:31:40.149Z,7.67
2019-05-19T20:34:12.022Z,10.48
2019-05-19T20:36:43.882Z,6.55
2019-05-19T20:39:16.425Z,6.28
2019-05-19T20:41:48.296Z,5.28
2019-05-19T20:44:20.034Z,8.88
2019-05-19T20:46:51.932Z,7.42
2019-05-19T20:49:25.340Z,9.88
2019-05-19T20:51:57.283Z,9.55
2019-05-19T20:54:31.092Z,8.05
2019-05-19T20:57:03.227Z,9.05
2019-05-19T20:59:36.054Z,6.10
2019-05-19T21:02:07.787Z,10.32
2019-05-19T21:04:39.700Z,8.03
2019-05-19T21:07:11.489Z,11.35
2019-05-19T21:09:43.280Z,7.17
2019-05-19T21:12:16.101Z,8.30
2019-05-19T21:14:47.978Z,6.72
2019-05-19T21:17:20.212Z,8.75
2019-05-19T21:19:55.306Z,5.97
2019-05-19T21:22:27.178Z,12.28
2019-05-19T21:24:58.955Z,13.30
2019-05-19T21:27:30.703Z,10.35
2019-05-19T21:30:02.586Z,9.68
2019-05-19T21:32:36.535Z,9.55
2019-05-19T21:35:08.372Z,10.15
2019-05-19T21:37:45.193Z,7.67
2019-05-19T21:40:17.919Z,6.92
2019-05-19T21:42:53.645Z,10.95
2019-05-19T21:45:25.743Z,12.80
2019-05-19T21:47:57.706Z,5.80
2019-05-19T21:50:29.556Z,7.30
2019-05-19T21:53:06.397Z,5.12
2019-05-19T21:55:36.832Z,10.65
2019-05-19T21:58:09.556Z,6.83
2019-05-19T22:00:43.265Z,8.33
2019-05-19T22:03:15.169Z,5.00
2019-05-19T22:05:53.193Z,8.35
2019-05-19T22:08:22.498Z,7.42
2019-05-19T22:10:54.362Z,7.62
2019-05-19T22:13:27.790Z,10.68
2019-05-19T22:16:12.479Z,6.87
2019-05-19T22:18:35.671Z,9.48
2019-05-19T22:21:07.868Z,8.10
2019-05-19T22:23:39.774Z,8.13
2019-05-19T22:26:11.631Z,7.65
2019-05-19T22:28:43.817Z,7.55
2019-05-19T22:31:15.747Z,8.45
2019-05-19T22:33:47.637Z,10.32
2019-05-19T22:36:19.550Z,5.08
2019-05-19T22:38:51.393Z,10.03
2019-05-19T22:41:23.265Z,8.58
2019-05-19T22:43:55.149Z,6.60
2019-05-19T22:46:27.291Z,7.33
2019-05-19T22:48:59.244Z,6.47
2019-05-19T22:51:32.724Z,6.28
2019-05-19T22:54:06.743Z,10.70
2019-05-19T22:56:38.662Z,5.83
2019-05-19T22:59:19.249Z,9.68
2019-05-19T23:01:51.819Z,6.97
2019-05-19T23:04:17.987Z,8.00
2019-05-19T23:06:49.598Z,9.73
2019-05-19T23:09:21.764Z,7.12
2019-05-19T23:11:53.605Z,7.70
2019-05-19T23:14:27.998Z,8.38
2019-05-19T23:17:00.478Z,9.60
2019-05-19T23:19:32.721Z,12.60
2019-05-19T23:22:04.523Z,5.75
2019-05-19T23:24:38.163Z,7.70
2019-05-19T23:27:09.946Z,6.12
2019-05-19T23:29:41.774Z,8.75
2019-05-19T23:32:15.266Z,5.42
2019-05-19T23:34:47.313Z,9.05
2019-05-19T23:37:19.159Z,6.92
2019-05-19T23:39:54.240Z,6.92
2019-05-19T23:42:26.221Z,4.95
2019-05-19T23:44:58.133Z,9.98
2019-05-19T23:47:29.873Z,6.30
2019-05-19T23:50:01.695Z,7.85
2019-05-19T23:52:33.522Z,7.30
2019-05-19T23:55:07.255Z,7.28
2019-05-19T23:57:40.109Z,6.72
